Time;durP1;ratioP1;P1;durP2;ratioP2;P2;SDS_P1;SDS_P2;PMS_P1;PMS_P2;Temp;Humidity;BMP_temperature;BMP_pressure;BME280_temperature;BME280_humidity;BME280_pressure;Samples;Min_cycle;Max_cycle;Signal;HPM_P1;HPM_P2
2021/12/17 00:07:27;;;;;;;179.10;55.80;;;;;;;1.40;100.00;103988.41;5200315;28;20040;-71
2021/12/17 00:10:01;;;;;;;188.65;55.65;;;;;;;1.36;100.00;103986.75;5200218;28;20229;-71
2021/12/17 00:12:31;;;;;;;188.75;68.78;;;;;;;1.29;100.00;103986.00;5200176;28;20057;-71
2021/12/17 00:15:04;;;;;;;220.05;66.18;;;;;;;1.25;100.00;103979.88;5199896;28;20500;-71
2021/12/17 00:17:39;;;;;;;154.07;52.80;;;;;;;1.22;100.00;103981.72;5200031;28;20064;-70
2021/12/17 00:51:33;;;;;;;140.85;58.05;;;;;;;1.30;100.00;103969.22;5203953;28;20816;-71
2021/12/17 00:53:56;;;;;;;189.25;66.93;;;;;;;1.34;100.00;103957.66;5202645;28;20025;-71
2021/12/17 00:56:27;;;;;;;204.35;67.15;;;;;;;1.34;100.00;103967.38;5203143;28;20029;-71
2021/12/17 00:58:58;;;;;;;261.17;70.93;;;;;;;1.32;100.00;103966.56;5212964;28;20091;-71
2021/12/17 01:01:28;;;;;;;212.55;63.85;;;;;;;1.32;100.00;103963.91;5207318;28;20021;-71
2021/12/17 01:03:59;;;;;;;194.10;59.33;;;;;;;1.34;100.00;103964.75;5203582;28;20033;-71
2021/12/17 01:06:29;;;;;;;182.98;59.80;;;;;;;1.30;100.00;103961.28;5203090;28;20018;-72
2021/12/17 01:09:01;;;;;;;144.98;56.75;;;;;;;1.32;100.00;103958.63;5203405;28;20053;-71
2021/12/17 01:11:32;;;;;;;184.23;62.75;;;;;;;1.38;100.00;103969.06;5202931;28;20021;-71
2021/12/17 01:14:04;;;;;;;289.60;74.95;;;;;;;1.42;100.00;103960.19;5203294;28;20547;-71
2021/12/17 01:16:35;;;;;;;150.63;59.85;;;;;;;1.49;100.00;103959.13;5203433;28;20101;-72
2021/12/17 01:22:02;;;;;;;143.73;58.33;;;;;;;1.69;100.00;103945.50;5203176;28;20155;-71
2021/12/17 01:24:41;;;;;;;185.13;68.22;;;;;;;1.75;100.00;103943.56;5186431;28;20021;-71
2021/12/17 01:35:44;;;;;;;217.18;65.57;;;;;;;1.86;100.00;103932.78;5203074;28;20018;-71
2021/12/17 01:40:01;;;;;;;205.52;70.68;;;;;;;1.91;100.00;103943.22;5202806;28;20021;-71
2021/12/17 01:43:54;;;;;;;151.10;55.13;;;;;;;2.07;100.00;103934.06;5203002;28;20060;-71
2021/12/17 01:46:28;;;;;;;150.07;57.53;;;;;;;2.06;100.00;103940.25;5202363;28;20033;-71
2021/12/17 01:59:59;;;;;;;222.55;63.03;;;;;;;2.07;100.00;103934.06;5215675;28;20096;-71
2021/12/17 02:02:36;;;;;;;268.33;67.13;;;;;;;2.04;100.00;103940.28;5203207;28;20101;-71
2021/12/17 02:05:09;;;;;;;198.77;63.25;;;;;;;2.02;100.00;103933.28;5202808;28;20063;-71
2021/12/17 02:07:42;;;;;;;225.45;63.53;;;;;;;2.03;100.00;103937.66;5201862;28;20473;-71
2021/12/17 02:21:35;;;;;;;232.55;60.40;;;;;;;1.97;100.00;103948.41;5202961;28;20593;-71
2021/12/17 02:32:19;;;;;;;196.13;59.85;;;;;;;1.96;100.00;103951.97;5202399;28;20033;-70
2021/12/17 02:37:43;;;;;;;155.38;58.90;;;;;;;2.01;100.00;103950.97;5202242;28;20385;-71
2021/12/17 02:45:36;;;;;;;162.48;61.95;;;;;;;2.11;100.00;103941.03;5201752;28;20035;-73
2021/12/17 02:48:09;;;;;;;191.13;60.70;;;;;;;2.12;100.00;103941.88;5202246;28;20056;-72
2021/12/17 02:50:44;;;;;;;248.75;66.00;;;;;;;2.12;100.00;103942.75;5200962;28;20064;-72
2021/12/17 02:53:16;;;;;;;242.90;65.10;;;;;;;2.11;100.00;103943.66;5202387;28;20026;-73
2021/12/17 02:55:52;;;;;;;239.55;59.65;;;;;;;2.10;100.00;103944.56;5199943;28;20029;-73
2021/12/17 02:58:26;;;;;;;216.68;61.42;;;;;;;2.08;100.00;103936.66;5206839;28;20021;-73
2021/12/17 03:00:58;;;;;;;192.30;59.33;;;;;;;2.06;100.00;103942.91;5210053;28;20041;-72
2021/12/17 03:03:40;;;;;;;179.10;57.58;;;;;;;2.06;100.00;103932.31;5202294;28;20364;-73
2021/12/17 03:06:10;;;;;;;179.25;65.18;;;;;;;2.06;100.00;103932.31;5200807;28;20026;-73
2021/12/17 03:08:46;;;;;;;210.15;66.97;;;;;;;2.07;100.00;103926.09;5200798;28;20121;-72
2021/12/17 03:11:17;;;;;;;254.93;69.63;;;;;;;2.09;100.00;103924.28;5201746;28;20029;-72
2021/12/17 03:13:50;;;;;;;213.45;65.57;;;;;;;2.10;100.00;103931.31;5216965;28;20128;-73
2021/12/17 03:16:38;;;;;;;208.60;64.80;;;;;;;2.10;100.00;103928.66;5201246;28;20028;-73
2021/12/17 03:19:24;;;;;;;232.45;70.55;;;;;;;2.14;100.00;103918.88;5201679;28;20513;-73
2021/12/17 03:24:43;;;;;;;222.68;61.45;;;;;;;2.14;100.00;103919.75;5188524;28;19913;-73
2021/12/17 03:27:14;;;;;;;188.55;60.17;;;;;;;2.10;100.00;103911.91;5201053;28;20440;-73
2021/12/17 03:29:44;;;;;;;195.52;60.58;;;;;;;2.10;100.00;103918.06;5201608;28;20031;-73
2021/12/17 03:32:15;;;;;;;205.48;62.92;;;;;;;2.08;100.00;103918.13;5200274;28;20068;-73
2021/12/17 03:34:45;;;;;;;149.55;57.60;;;;;;;2.09;100.00;103921.63;5201008;28;20087;-73
2021/12/17 03:37:15;;;;;;;156.02;58.65;;;;;;;2.10;100.00;103917.19;5201050;28;20040;-73
2021/12/17 03:39:46;;;;;;;186.73;64.85;;;;;;;2.12;100.00;103912.75;5201206;28;20063;-73
2021/12/17 03:42:16;;;;;;;135.60;58.92;;;;;;;2.14;100.00;103919.75;5200994;28;20087;-71
2021/12/17 03:44:47;;;;;;;150.25;61.47;;;;;;;2.16;100.00;103920.59;5200662;28;20030;-71
2021/12/17 03:47:17;;;;;;;189.70;63.25;;;;;;;2.19;100.00;103917.84;5200809;28;20026;-73
2021/12/17 03:49:49;;;;;;;215.52;64.55;;;;;;;2.18;100.00;103916.13;5200566;28;20099;-71
2021/12/17 03:52:19;;;;;;;170.40;62.50;;;;;;;2.16;100.00;103917.94;5201210;28;20064;-71
2021/12/17 03:54:49;;;;;;;236.70;60.75;;;;;;;2.16;100.00;103925.91;5200905;28;20112;-71
2021/12/17 03:57:21;;;;;;;169.50;59.33;;;;;;;2.16;100.00;103931.19;5199901;28;20498;-71
2021/12/17 03:59:51;;;;;;;196.15;64.90;;;;;;;2.17;100.00;103927.63;5200757;28;20083;-72
2021/12/17 04:02:22;;;;;;;163.05;58.60;;;;;;;2.20;100.00;103932.84;5200576;28;20029;-73
2021/12/17 04:04:52;;;;;;;262.15;67.82;;;;;;;2.20;100.00;103935.47;5200101;28;20464;-73
2021/12/17 04:07:23;;;;;;;171.52;59.42;;;;;;;2.20;100.00;103942.56;5200794;28;20112;-73
2021/12/17 04:09:53;;;;;;;213.52;64.97;;;;;;;2.19;100.00;103928.44;5200740;28;20033;-73
2021/12/17 04:12:38;;;;;;;170.10;62.53;;;;;;;2.19;100.00;103940.81;5200959;28;20572;-72
2021/12/17 04:15:08;;;;;;;135.05;56.55;;;;;;;2.19;100.00;103938.19;5215500;28;20033;-73
2021/12/17 04:17:45;;;;;;;157.60;60.53;;;;;;;2.22;100.00;103943.41;5201016;28;20091;-73
2021/12/17 04:20:15;;;;;;;163.50;61.47;;;;;;;2.24;100.00;103945.09;5203080;28;20389;-73
2021/12/17 04:22:46;;;;;;;125.85;52.88;;;;;;;2.29;100.00;103945.00;5203861;28;20029;-71
2021/12/17 04:25:16;;;;;;;175.70;57.58;;;;;;;2.29;100.00;103953.81;5202902;28;20013;-71
2021/12/17 04:27:47;;;;;;;195.02;55.33;;;;;;;2.31;100.00;103951.16;5204970;28;20425;-73
2021/12/17 04:30:17;;;;;;;252.95;56.10;;;;;;;2.33;100.00;103944.88;5204759;28;20057;-72
2021/12/17 04:32:48;;;;;;;142.35;50.22;;;;;;;2.37;100.00;103934.22;5204878;28;20025;-73
2021/12/17 04:35:18;;;;;;;154.75;52.90;;;;;;;2.39;100.00;103946.50;5204128;28;20440;-73
2021/12/17 04:37:49;;;;;;;184.75;57.47;;;;;;;2.41;100.00;103938.50;5204602;28;20063;-73
2021/12/17 04:40:22;;;;;;;170.13;51.72;;;;;;;2.45;100.00;103937.53;5204225;28;20389;-73
2021/12/17 04:45:45;;;;;;;130.23;53.30;;;;;;;2.50;100.00;103933.00;5203494;28;20010;-73
2021/12/17 04:59:32;;;;;;;114.47;47.13;;;;;;;2.60;100.00;103937.16;5217374;28;20094;-73
2021/12/17 05:02:03;;;;;;;118.32;46.10;;;;;;;2.64;100.00;103936.16;5202825;28;20037;-73
2021/12/17 05:04:34;;;;;;;265.55;61.00;;;;;;;2.69;100.00;103950.19;5203892;28;20485;-73
2021/12/17 05:07:07;;;;;;;133.15;47.50;;;;;;;2.74;100.00;103955.34;5204193;28;20064;-73
2021/12/17 05:09:59;;;;;;;141.02;50.53;;;;;;;2.78;100.00;103963.19;5203959;28;20029;-73
2021/12/17 05:21:03;;;;;;;240.32;50.83;;;;;;;2.85;100.00;103964.75;5203549;28;20061;-74
2021/12/17 05:23:40;;;;;;;116.40;44.95;;;;;;;2.87;100.00;103964.75;5203807;28;20361;-72
2021/12/17 05:26:13;;;;;;;183.77;51.67;;;;;;;2.89;100.00;103959.41;5203175;28;20025;-73
2021/12/17 05:28:45;;;;;;;207.70;49.40;;;;;;;2.88;100.00;103958.53;5203886;28;20084;-73
2021/12/17 05:31:18;;;;;;;208.32;52.60;;;;;;;2.90;100.00;103963.78;5202903;28;20104;-72
2021/12/17 05:33:50;;;;;;;187.40;48.58;;;;;;;2.89;100.00;103952.31;5203605;28;20064;-72
2021/12/17 05:36:21;;;;;;;214.48;49.20;;;;;;;2.91;100.00;103955.78;5203262;28;20079;-72
2021/12/17 05:38:51;;;;;;;230.90;49.70;;;;;;;2.91;100.00;103955.78;5203526;28;20371;-72
2021/12/17 05:41:22;;;;;;;117.97;42.95;;;;;;;2.91;100.00;103950.47;5203472;28;20477;-72
2021/12/17 05:43:56;;;;;;;138.05;45.05;;;;;;;2.93;100.00;103947.81;5203348;28;20033;-72
2021/12/17 05:49:18;;;;;;;182.38;50.00;;;;;;;2.98;100.00;103957.38;5203293;28;20049;-72
2021/12/17 05:51:50;;;;;;;176.52;49.40;;;;;;;3.02;100.00;103955.50;5201956;28;20032;-72
2021/12/17 05:54:21;;;;;;;133.13;44.90;;;;;;;3.04;100.00;103951.03;5201921;28;20029;-72
2021/12/17 05:56:52;;;;;;;115.85;44.92;;;;;;;3.07;100.00;103958.91;5202859;28;20040;-72
2021/12/17 05:59:22;;;;;;;168.15;48.03;;;;;;;3.09;100.00;103965.91;5202873;28;20033;-72
2021/12/17 06:01:55;;;;;;;141.93;46.67;;;;;;;3.10;100.00;103967.63;5201645;28;20091;-72
2021/12/17 06:04:25;;;;;;;162.45;50.05;;;;;;;3.12;100.00;103964.97;5201360;28;20037;-73
2021/12/17 06:06:56;;;;;;;124.07;43.92;;;;;;;3.15;100.00;103961.34;5202745;28;20121;-72
2021/12/17 06:09:26;;;;;;;140.20;44.17;;;;;;;3.15;100.00;103959.56;5202637;28;20036;-72
2021/12/17 06:11:57;;;;;;;134.38;42.67;;;;;;;3.15;100.00;103948.94;5203220;28;20017;-72
2021/12/17 06:14:27;;;;;;;131.82;42.53;;;;;;;3.15;100.00;103954.25;5202494;28;20203;-72
2021/12/17 06:16:58;;;;;;;109.32;38.75;;;;;;;3.20;100.00;103957.66;5202890;28;20025;-72
2021/12/17 06:19:28;;;;;;;175.80;45.28;;;;;;;3.20;100.00;103962.94;5202659;28;20039;-71
2021/12/17 06:21:59;;;;;;;144.82;43.05;;;;;;;3.19;100.00;103969.19;5202459;28;20029;-72
2021/12/17 06:24:29;;;;;;;138.68;44.75;;;;;;;3.18;100.00;103971.88;5202409;28;20385;-72
2021/12/17 06:27:00;;;;;;;116.95;37.45;;;;;;;3.22;100.00;103961.16;5202765;28;20029;-72
2021/12/17 06:29:30;;;;;;;127.78;42.55;;;;;;;3.25;100.00;103963.69;5201343;28;20112;-72
2021/12/17 06:32:01;;;;;;;179.48;42.42;;;;;;;3.28;100.00;103970.72;5202523;28;20099;-72
2021/12/17 06:34:32;;;;;;;135.80;39.28;;;;;;;3.27;100.00;103961.88;5201805;28;20029;-72
2021/12/17 06:37:04;;;;;;;144.65;37.22;;;;;;;3.28;100.00;103963.63;5202507;28;20113;-72
2021/12/17 06:39:35;;;;;;;143.00;40.15;;;;;;;3.32;100.00;103962.63;5202304;28;20112;-73
2021/12/17 06:42:06;;;;;;;140.07;40.13;;;;;;;3.34;100.00;103968.75;5202258;28;20159;-72
2021/12/17 06:44:38;;;;;;;163.23;43.85;;;;;;;3.34;100.00;103976.72;5202095;28;20029;-73
2021/12/17 07:00:59;;;;;;;180.23;44.28;;;;;;;3.48;100.00;103981.63;5212790;28;20500;-73
2021/12/17 07:06:39;;;;;;;147.65;40.10;;;;;;;3.56;100.00;103973.44;5201321;28;20021;-73
2021/12/17 07:17:43;;;;;;;157.98;41.30;;;;;;;3.59;100.00;103986.63;5201815;28;20036;-74
2021/12/17 07:23:10;;;;;;;155.43;41.75;;;;;;;3.64;100.00;103993.53;5201253;28;20021;-75
2021/12/17 07:28:56;;;;;;;181.05;43.65;;;;;;;3.66;100.00;103988.19;5201873;28;20026;-76
2021/12/17 07:34:13;;;;;;;165.43;39.83;;;;;;;3.72;100.00;103993.34;5200904;28;20075;-75
2021/12/17 07:38:35;;;;;;;153.65;40.95;;;;;;;3.77;100.00;103991.41;5200161;28;20079;-75
2021/12/17 07:39:35;;;;;;;191.07;46.03;;;;;;;3.79;100.00;103992.22;5187081;28;20027;-72
2021/12/17 07:42:06;;;;;;;190.38;44.55;;;;;;;3.83;100.00;103993.00;5180127;28;20036;-74
2021/12/17 07:44:36;;;;;;;164.20;44.85;;;;;;;3.84;100.00;103982.34;5189706;28;20648;-76
2021/12/17 07:47:07;;;;;;;171.98;46.60;;;;;;;3.89;100.00;103985.72;5199847;28;20117;-76
2021/12/17 07:49:37;;;;;;;187.57;44.97;;;;;;;3.92;100.00;103979.47;5199147;28;20037;-73
2021/12/17 07:52:08;;;;;;;159.63;44.72;;;;;;;3.96;100.00;103980.22;5191240;28;20078;-72
2021/12/17 07:54:38;;;;;;;171.30;42.08;;;;;;;3.98;100.00;103975.75;5198257;28;20021;-75
2021/12/17 07:57:09;;;;;;;161.95;44.15;;;;;;;4.04;100.00;103978.22;5197804;28;20028;-74
2021/12/17 07:59:40;;;;;;;160.77;43.72;;;;;;;4.04;100.00;103975.56;5207063;28;20029;-74
2021/12/17 08:02:10;;;;;;;142.00;40.42;;;;;;;4.16;100.00;103986.66;5184612;28;20038;-72
2021/12/17 08:04:41;;;;;;;168.27;42.33;;;;;;;4.16;100.00;103989.31;5178523;28;20032;-72
2021/12/17 08:07:11;;;;;;;141.73;39.92;;;;;;;4.15;100.00;103992.88;5177293;28;20036;-72
2021/12/17 08:09:43;;;;;;;134.48;40.33;;;;;;;4.16;100.00;103991.97;5181992;28;20093;-76
2021/12/17 08:12:14;;;;;;;130.73;38.75;;;;;;;4.19;100.00;103990.16;5198687;28;20035;-75
2021/12/17 08:14:44;;;;;;;128.57;37.05;;;;;;;4.21;100.00;103996.28;5198166;28;20025;-75
2021/12/17 08:17:38;;;;;;;125.80;38.92;;;;;;;4.23;100.00;103984.69;5198953;28;20500;-72
2021/12/17 08:23:42;;;;;;;130.88;37.08;;;;;;;4.34;100.00;103985.22;5197697;28;20060;-72
2021/12/17 08:28:49;;;;;;;158.65;42.30;;;;;;;4.37;100.00;103993.09;5198807;28;20516;-75
2021/12/17 08:31:19;;;;;;;145.55;37.88;;;;;;;4.41;100.00;103991.19;5198600;28;20030;-76
2021/12/17 08:33:50;;;;;;;157.77;40.13;;;;;;;4.45;100.00;103994.63;5198818;28;20385;-77
2021/12/17 08:36:20;;;;;;;130.73;38.95;;;;;;;4.47;100.00;103990.13;5198538;28;20503;-76
2021/12/17 08:38:51;;;;;;;156.23;41.65;;;;;;;4.52;100.00;103994.41;5192307;28;20040;-73
2021/12/17 08:41:22;;;;;;;178.88;41.88;;;;;;;4.58;100.00;103995.97;5186619;28;20045;-74
2021/12/17 08:43:52;;;;;;;142.93;39.75;;;;;;;4.62;100.00;103993.16;5185197;28;20041;-75
2021/12/17 08:46:23;;;;;;;166.68;41.25;;;;;;;4.69;100.00;103999.16;5193087;28;20025;-74
2021/12/17 08:48:54;;;;;;;160.15;40.58;;;;;;;4.71;100.00;103999.09;5193192;28;20120;-73
2021/12/17 08:51:25;;;;;;;148.15;38.63;;;;;;;4.74;100.00;103993.66;5181824;28;20040;-74
2021/12/17 08:53:56;;;;;;;179.57;44.38;;;;;;;4.80;100.00;103990.81;5192592;28;20652;-77
2021/12/17 08:56:30;;;;;;;181.50;43.33;;;;;;;4.81;100.00;103995.19;5190355;28;20730;-74
2021/12/17 08:59:04;;;;;;;178.23;41.45;;;;;;;4.86;100.00;104001.22;5187529;28;20528;-73
2021/12/17 09:01:35;;;;;;;193.40;39.90;;;;;;;4.90;100.00;103994.88;5189132;28;20065;-73
2021/12/17 09:04:05;;;;;;;205.15;44.83;;;;;;;4.95;100.00;103998.25;5181095;28;20498;-72
2021/12/17 09:06:36;;;;;;;181.75;44.15;;;;;;;4.99;100.00;103999.91;5188781;28;20108;-75
2021/12/17 09:09:07;;;;;;;177.18;42.70;;;;;;;5.03;100.00;104001.53;5189035;28;20036;-77
2021/12/17 09:11:37;;;;;;;169.98;42.78;;;;;;;5.08;100.00;104009.34;5177984;28;20036;-76
2021/12/17 09:14:08;;;;;;;162.95;40.92;;;;;;;5.16;100.00;104007.28;5172566;28;20028;-77
2021/12/17 09:16:39;;;;;;;165.48;43.95;;;;;;;5.17;100.00;104011.66;5191073;28;20112;-76
2021/12/17 09:19:10;;;;;;;186.73;42.67;;;;;;;5.20;100.00;104012.44;5181322;28;20104;-77
2021/12/17 09:21:42;;;;;;;169.35;41.15;;;;;;;5.25;100.00;104019.41;5187262;28;20290;-76
2021/12/17 09:24:13;;;;;;;168.43;42.83;;;;;;;5.29;100.00;104021.03;5182909;28;20031;-76
2021/12/17 09:26:43;;;;;;;182.05;41.53;;;;;;;5.31;100.00;104014.72;5189932;28;20025;-75
2021/12/17 09:29:14;;;;;;;171.02;44.03;;;;;;;5.36;100.00;104011.91;5185183;28;20605;-74
2021/12/17 09:31:44;;;;;;;207.27;44.10;;;;;;;5.41;100.00;104024.13;5180764;28;20362;-75
2021/12/17 09:34:15;;;;;;;167.45;44.17;;;;;;;5.44;100.00;104024.00;5188611;28;20509;-75
2021/12/17 09:36:45;;;;;;;161.50;39.65;;;;;;;5.46;100.00;104024.81;5191794;28;20047;-75
2021/12/17 09:39:17;;;;;;;217.23;44.30;;;;;;;5.51;100.00;104039.75;5182087;28;20036;-75
2021/12/17 09:41:50;;;;;;;191.63;42.03;;;;;;;5.53;100.00;104030.81;5170564;28;20378;-75
2021/12/17 09:44:21;;;;;;;181.18;40.03;;;;;;;5.55;100.00;104041.41;5194484;28;20156;-73
2021/12/17 09:46:57;;;;;;;187.23;42.97;;;;;;;5.55;100.00;104050.25;5190640;28;20031;-75
2021/12/17 09:49:27;;;;;;;169.45;40.63;;;;;;;5.58;100.00;104055.47;5181128;28;20029;-73
2021/12/17 09:51:59;;;;;;;181.40;43.28;;;;;;;5.61;100.00;104051.81;5186365;28;20498;-73
2021/12/17 09:54:30;;;;;;;182.85;42.92;;;;;;;5.65;100.00;104048.13;5187999;28;20034;-73
2021/12/17 09:57:00;;;;;;;193.10;42.97;;;;;;;5.68;100.00;104054.22;5190171;28;20018;-73
2021/12/17 09:59:31;;;;;;;212.75;41.88;;;;;;;5.71;100.00;104054.09;5184914;28;20108;-73
2021/12/17 10:02:02;;;;;;;187.60;42.47;;;;;;;5.72;100.00;104061.19;5189850;28;20036;-73
2021/12/17 10:04:33;;;;;;;189.82;42.60;;;;;;;5.74;100.00;104055.78;5188476;28;20030;-74
2021/12/17 10:07:43;;;;;;;180.20;42.70;;;;;;;5.79;100.00;104047.63;5184480;28;20028;-73
2021/12/17 10:10:16;;;;;;;202.13;43.33;;;;;;;5.80;100.00;104050.22;5188566;28;20030;-73
2021/12/17 10:12:47;;;;;;;212.63;44.67;;;;;;;5.83;100.00;104047.47;5187042;28;20069;-77
2021/12/17 10:15:19;;;;;;;196.38;43.05;;;;;;;5.87;100.00;104050.84;5186432;28;20148;-75
2021/12/17 10:18:02;;;;;;;196.70;43.05;;;;;;;5.91;100.00;104050.72;5189156;28;20096;-74
2021/12/17 10:20:36;;;;;;;196.63;42.75;;;;;;;5.93;100.00;104040.03;5193347;28;20028;-74
2021/12/17 10:23:09;;;;;;;207.50;43.50;;;;;;;5.95;100.00;104044.34;5188865;28;20568;-73
2021/12/17 10:25:43;;;;;;;208.73;43.72;;;;;;;6.01;100.00;104045.03;5187657;28;20329;-74
2021/12/17 10:28:15;;;;;;;199.75;42.90;;;;;;;6.04;100.00;104047.59;5188731;28;20505;-73
2021/12/17 10:30:48;;;;;;;182.63;42.30;;;;;;;6.07;100.00;104042.13;5186944;28;20398;-73
2021/12/17 10:33:23;;;;;;;206.63;44.88;;;;;;;6.13;100.00;104042.78;5186588;28;20033;-74
2021/12/17 10:35:57;;;;;;;188.13;39.38;;;;;;;6.16;100.00;104040.00;5184565;28;20144;-75
2021/12/17 10:38:27;;;;;;;188.95;42.83;;;;;;;6.20;100.00;104046.06;5187122;28;20053;-74
2021/12/17 10:41:04;;;;;;;207.00;43.40;;;;;;;6.22;100.00;104045.09;5183881;28;20120;-75
2021/12/17 10:43:39;;;;;;;188.70;42.40;;;;;;;6.24;100.00;104039.69;5189562;28;20045;-75
2021/12/17 10:54:28;;;;;;;217.60;45.53;;;;;;;6.34;100.00;104043.75;5191255;28;20478;-75
2021/12/17 10:56:58;;;;;;;205.80;43.25;;;;;;;6.36;100.00;104031.19;5191510;28;20026;-73
2021/12/17 10:59:31;;;;;;;186.27;42.17;;;;;;;6.37;100.00;104040.06;5189418;28;20512;-75
2021/12/17 11:02:10;;;;;;;200.23;44.22;;;;;;;6.41;100.00;104039.03;5189199;28;20080;-75
2021/12/17 11:04:45;;;;;;;230.30;45.22;;;;;;;6.44;100.00;104039.78;5186649;28;20033;-76
2021/12/17 11:07:18;;;;;;;248.00;43.93;;;;;;;6.48;100.00;104037.88;5188843;28;20104;-75
2021/12/17 11:09:53;;;;;;;218.80;43.65;;;;;;;6.51;100.00;104037.72;5179131;28;20469;-75
2021/12/17 11:12:27;;;;;;;;;;;;;;;6.52;100.00;104050.13;5187196;28;20041;-75
2021/12/17 11:15:36;;;;;;;172.70;39.42;;;;;;;6.55;100.00;104038.47;5185657;28;19921;-75
2021/12/17 11:18:06;;;;;;;218.15;41.53;;;;;;;6.56;100.00;104035.72;5183954;28;20098;-75
2021/12/17 11:20:39;;;;;;;225.38;42.83;;;;;;;6.58;100.00;104041.03;5184978;28;20069;-75
2021/12/17 11:23:14;;;;;;;242.82;43.88;;;;;;;6.61;100.00;104032.88;5190487;28;20017;-75
2021/12/17 11:25:48;;;;;;;224.02;42.53;;;;;;;6.65;100.00;104026.50;5184765;28;20029;-76
2021/12/17 11:28:20;;;;;;;226.38;42.13;;;;;;;6.65;100.00;104026.50;5185950;28;20099;-79
2021/12/17 11:30:51;;;;;;;206.07;41.83;;;;;;;6.68;100.00;104023.72;5190222;28;20377;-74
2021/12/17 11:33:22;;;;;;;204.18;41.35;;;;;;;6.68;100.00;104027.25;5190651;28;20028;-77
2021/12/17 11:35:53;;;;;;;226.35;46.40;;;;;;;6.71;100.00;104032.44;5182851;28;20203;-77
2021/12/17 11:39:00;;;;;;;228.65;42.58;;;;;;;6.73;100.00;104021.72;5190388;28;20045;-75
2021/12/17 11:41:51;;;;;;;228.45;39.30;;;;;;;6.75;100.00;104028.72;5185656;28;20094;-74
2021/12/17 11:44:28;;;;;;;211.35;41.45;;;;;;;6.76;100.00;104026.91;5180697;28;20018;-76
2021/12/17 11:47:17;;;;;;;218.18;40.13;;;;;;;6.76;100.00;104013.56;5180415;28;20283;-76
2021/12/17 11:49:50;;;;;;;190.63;39.15;;;;;;;7.11;100.00;104028.09;5188070;28;20085;-72
2021/12/17 11:52:39;;;;;;;205.27;41.55;;;;;;;7.19;100.00;104020.63;5178668;28;20026;-73
2021/12/17 11:55:20;;;;;;;167.38;37.95;;;;;;;7.23;100.00;104011.56;5190192;28;20033;-73
2021/12/17 11:57:53;;;;;;;201.30;40.63;;;;;;;7.21;100.00;104013.41;5188003;28;20493;-73
2021/12/17 12:00:30;;;;;;;182.18;37.67;;;;;;;7.24;100.00;104013.28;5191350;28;20421;-76
2021/12/17 12:03:15;;;;;;;186.45;37.15;;;;;;;7.25;100.00;104004.31;5188622;28;20087;-77
2021/12/17 12:05:49;;;;;;;197.57;39.20;;;;;;;7.29;100.00;104009.53;5185219;28;20022;-74
2021/12/17 12:11:28;;;;;;;208.65;37.25;;;;;;;7.35;100.00;104002.13;5185616;28;20049;-74
2021/12/17 12:13:59;;;;;;;187.27;39.40;;;;;;;7.36;100.00;103994.97;5185951;28;20061;-74
2021/12/17 12:16:30;;;;;;;173.60;36.50;;;;;;;7.39;100.00;104002.84;5187595;28;20025;-74
2021/12/17 12:19:19;;;;;;;181.93;37.47;;;;;;;7.38;100.00;103993.97;5181003;28;20072;-75
2021/12/17 12:22:04;;;;;;;189.35;39.35;;;;;;;7.43;100.00;104004.44;5188387;28;20045;-74
2021/12/17 12:24:34;;;;;;;179.33;35.87;;;;;;;7.45;100.00;103999.91;5180205;28;20083;-76
2021/12/17 12:27:05;;;;;;;168.02;36.83;;;;;;;7.48;100.00;103995.28;5185825;28;20189;-75
2021/12/17 12:29:35;;;;;;;161.93;38.33;;;;;;;7.50;100.00;103996.09;5185525;28;20501;-75
2021/12/17 12:32:24;;;;;;;182.73;36.83;;;;;;;7.50;100.00;103989.88;5181980;28;20437;-76
2021/12/17 12:35:06;;;;;;;174.23;36.15;;;;;;;7.53;100.00;103982.59;5190046;28;20033;-75
2021/12/17 12:37:38;;;;;;;169.75;35.20;;;;;;;7.55;100.00;104000.34;5186078;28;20104;-75
2021/12/17 12:40:15;;;;;;;167.82;35.65;;;;;;;7.55;100.00;103992.34;5190531;28;20117;-75
2021/12/17 12:42:49;;;;;;;155.80;34.78;;;;;;;7.53;100.00;103985.28;5192812;28;20030;-75
2021/12/17 12:45:20;;;;;;;148.27;34.13;;;;;;;7.57;100.00;103993.13;5188458;28;20030;-76
2021/12/17 12:47:55;;;;;;;157.30;34.85;;;;;;;7.57;100.00;103990.44;5197307;28;20113;-74
2021/12/17 12:50:28;;;;;;;164.95;35.45;;;;;;;7.59;100.00;103999.28;5182168;28;20030;-75
2021/12/17 12:53:05;;;;;;;160.15;34.92;;;;;;;7.60;100.00;104004.56;5184603;28;20512;-76
2021/12/17 12:55:56;;;;;;;155.50;32.72;;;;;;;7.60;100.00;103995.66;5191125;28;20021;-75
2021/12/17 12:58:28;;;;;;;150.63;33.03;;;;;;;7.61;100.00;103990.25;5196654;28;20501;-75
2021/12/17 13:01:01;;;;;;;159.32;32.88;;;;;;;7.62;100.00;103996.47;5188047;28;20038;-75
2021/12/17 13:03:34;;;;;;;156.63;34.50;;;;;;;7.60;100.00;103993.88;5189624;28;20124;-75
2021/12/17 13:06:07;;;;;;;162.70;35.28;;;;;;;7.61;100.00;103992.06;5183249;28;20131;-73
2021/12/17 13:08:37;;;;;;;158.43;32.60;;;;;;;7.60;100.00;103993.00;5188638;28;20456;-75
2021/12/17 13:11:08;;;;;;;150.30;33.15;;;;;;;7.60;100.00;103996.53;5190140;28;20140;-74
2021/12/17 13:13:50;;;;;;;149.73;33.65;;;;;;;7.61;100.00;103992.06;5188261;28;20026;-75
2021/12/17 13:16:54;;;;;;;150.43;31.92;;;;;;;7.62;100.00;103983.09;5188402;28;20570;-75
2021/12/17 13:22:30;;;;;;;147.68;31.88;;;;;;;7.61;100.00;103989.38;5189619;28;20494;-75
2021/12/17 13:25:01;;;;;;;144.60;33.22;;;;;;;7.61;100.00;103982.22;5187627;28;20022;-75
2021/12/17 13:27:31;;;;;;;129.93;31.75;;;;;;;7.62;100.00;103978.63;5184366;28;20139;-75
2021/12/17 13:30:02;;;;;;;138.90;32.47;;;;;;;7.63;100.00;103971.47;5190330;28;20023;-75
2021/12/17 13:32:33;;;;;;;132.10;30.52;;;;;;;7.64;100.00;103967.88;5190084;28;20037;-75
2021/12/17 13:35:03;;;;;;;141.77;31.58;;;;;;;7.62;100.00;103967.06;5195996;28;20051;-75
2021/12/17 13:37:34;;;;;;;131.43;30.42;;;;;;;7.63;100.00;103955.44;5178492;28;20044;-77
2021/12/17 13:40:09;;;;;;;141.13;33.85;;;;;;;7.62;100.00;103954.56;5184115;28;20528;-74
2021/12/17 13:43:00;;;;;;;147.70;33.28;;;;;;;7.66;100.00;103955.28;5186280;28;20033;-76
2021/12/17 13:45:30;;;;;;;132.55;31.48;;;;;;;7.68;100.00;103953.41;5188398;28;20074;-76
2021/12/17 13:48:01;;;;;;;122.53;31.77;;;;;;;7.69;100.00;103949.81;5188459;28;20027;-76
2021/12/17 13:50:40;;;;;;;136.60;31.58;;;;;;;7.69;100.00;103944.47;5181384;28;20025;-76
2021/12/17 13:53:13;;;;;;;129.25;31.13;;;;;;;7.69;100.00;103947.16;5189951;28;20500;-75
2021/12/17 13:55:48;;;;;;;137.60;31.30;;;;;;;7.70;100.00;103956.91;5185036;28;20030;-76
2021/12/17 13:58:39;;;;;;;122.90;30.20;;;;;;;7.70;100.00;103948.88;5188493;28;20064;-74
2021/12/17 14:01:20;;;;;;;130.50;29.95;;;;;;;7.70;100.00;103954.22;5186447;28;20157;-74
2021/12/17 14:03:51;;;;;;;139.30;33.03;;;;;;;7.69;100.00;103955.16;5183146;28;20040;-76
2021/12/17 14:06:25;;;;;;;129.13;31.40;;;;;;;7.69;100.00;103953.34;5185389;28;20101;-75
2021/12/17 14:08:58;;;;;;;114.88;29.55;;;;;;;7.67;100.00;103954.34;5180364;28;20061;-73
2021/12/17 14:11:32;;;;;;;118.43;29.65;;;;;;;7.66;100.00;103956.16;5195191;28;20473;-75
2021/12/17 14:14:03;;;;;;;132.73;29.02;;;;;;;7.65;100.00;103954.44;5194290;28;20111;-75
2021/12/17 14:16:34;;;;;;;133.68;31.17;;;;;;;7.64;100.00;103952.72;5185213;28;20104;-74
2021/12/17 14:19:04;;;;;;;115.75;28.90;;;;;;;7.65;100.00;103953.56;5187828;28;20103;-76
2021/12/17 14:21:36;;;;;;;110.13;27.30;;;;;;;7.63;100.00;103950.09;5186635;28;20022;-76
2021/12/17 14:24:07;;;;;;;108.72;26.98;;;;;;;7.63;100.00;103950.09;5184405;28;20034;-76